TK1LT LTFM-LTAC
Flight info
| Callsign | TK1LT |
|---|---|
| Flight time | N/A |
| Altitude | 39000 |
| Route | DCT VICEN DCT ASMAP/N0371F270 L333 LATGA LATGA1R |
| Aircraft | A20N/M-SDE2E3FGHIRWXY/LB1 |
Departure
| Time | 2026-05-04 00:51 |
|---|---|
| Airport | İstanbul Airport (LTFM) |
Arrival
| Time | N/A |
|---|---|
| Airport | Esenboğa International Airport (LTAC) |
| Time | Latitude | Longitude | Altitude | Speed | Heading |
|---|---|---|---|---|---|
| 2026-05-04 00:51 | 41.18420 | 29.07353 | 20365 ft | 254 kts | 113° |
| 2026-05-04 00:51 | 41.17574 | 29.09400 | 21031 ft | 258 kts | 114° |
| 2026-05-04 00:52 | 41.16706 | 29.11496 | 21697 ft | 261 kts | 114° |
| 2026-05-04 00:52 | 41.15956 | 29.13305 | 22267 ft | 264 kts | 114° |
| 2026-05-04 00:52 | 41.15064 | 29.15455 | 22925 ft | 268 kts | 114° |
| 2026-05-04 00:52 | 41.14158 | 29.17637 | 23572 ft | 272 kts | 114° |
| 2026-05-04 00:53 | 41.13240 | 29.19844 | 24137 ft | 274 kts | 114° |
| 2026-05-04 00:53 | 41.12320 | 29.22054 | 24739 ft | 274 kts | 114° |
| 2026-05-04 00:53 | 41.11394 | 29.24277 | 25316 ft | 276 kts | 115° |
| 2026-05-04 00:53 | 41.10476 | 29.26480 | 25889 ft | 277 kts | 114° |
| 2026-05-04 00:54 | 41.09543 | 29.28718 | 26462 ft | 278 kts | 115° |
| 2026-05-04 00:54 | 41.08603 | 29.30972 | 26969 ft | 281 kts | 115° |
| 2026-05-04 00:54 | 41.07652 | 29.33251 | 27511 ft | 283 kts | 115° |
| 2026-05-04 00:54 | 41.06695 | 29.35543 | 28028 ft | 285 kts | 115° |
| 2026-05-04 00:55 | 41.05732 | 29.37847 | 28539 ft | 287 kts | 115° |
| 2026-05-04 00:55 | 41.04759 | 29.40171 | 29019 ft | 290 kts | 115° |
| 2026-05-04 00:55 | 41.03779 | 29.42512 | 29492 ft | 291 kts | 115° |
| 2026-05-04 00:55 | 41.02793 | 29.44868 | 29957 ft | 294 kts | 115° |
| 2026-05-04 00:56 | 41.01810 | 29.47213 | 30337 ft | 297 kts | 115° |
| 2026-05-04 00:56 | 41.00804 | 29.49613 | 30690 ft | 300 kts | 115° |
| 2026-05-04 00:56 | 40.99784 | 29.52044 | 31017 ft | 304 kts | 116° |
| 2026-05-04 00:56 | 40.98743 | 29.54503 | 31381 ft | 308 kts | 116° |
| 2026-05-04 00:57 | 40.97693 | 29.56980 | 31753 ft | 310 kts | 117° |
| 2026-05-04 00:57 | 40.96632 | 29.59487 | 32068 ft | 314 kts | 117° |
| 2026-05-04 00:57 | 40.95563 | 29.62021 | 32414 ft | 317 kts | 117° |
| 2026-05-04 00:57 | 40.94487 | 29.64576 | 32765 ft | 320 kts | 117° |
| 2026-05-04 00:58 | 40.93399 | 29.67163 | 33056 ft | 324 kts | 117° |
| 2026-05-04 00:58 | 40.92299 | 29.69776 | 33382 ft | 326 kts | 118° |
| 2026-05-04 00:58 | 40.91205 | 29.72370 | 33710 ft | 329 kts | 118° |
| 2026-05-04 00:58 | 40.90087 | 29.75017 | 34009 ft | 332 kts | 118° |
| 2026-05-04 00:59 | 40.88951 | 29.77701 | 34214 ft | 336 kts | 118° |
| 2026-05-04 00:59 | 40.87804 | 29.80408 | 34439 ft | 340 kts | 118° |
| 2026-05-04 00:59 | 40.86644 | 29.83143 | 34663 ft | 343 kts | 118° |
| 2026-05-04 00:59 | 40.85482 | 29.85876 | 35054 ft | 340 kts | 118° |
| 2026-05-04 01:00 | 40.84330 | 29.88583 | 35483 ft | 337 kts | 118° |
| 2026-05-04 01:00 | 40.82005 | 29.94055 | 35655 ft | 351 kts | 118° |
| 2026-05-04 01:00 | 40.80804 | 29.96873 | 35828 ft | 354 kts | 118° |
| 2026-05-04 01:01 | 40.79591 | 29.99713 | 36048 ft | 356 kts | 118° |
| 2026-05-04 01:01 | 40.78413 | 30.02591 | 36296 ft | 358 kts | 112° |
| 2026-05-04 01:01 | 40.77928 | 30.04286 | 36306 ft | 361 kts | 107° |